sensor_id;sensor_type;location;lat;lon;timestamp;pressure;altitude;pressure_sealevel;temperature;humidity
74065;BME280;62421;51.412;5.432;2022-12-17T00:00:01;102133.28;;;-2.45;100.00
74065;BME280;62421;51.412;5.432;2022-12-17T00:02:45;102127.19;;;-2.38;100.00
74065;BME280;62421;51.412;5.432;2022-12-17T00:05:29;102142.16;;;-2.16;100.00
74065;BME280;62421;51.412;5.432;2022-12-17T00:08:13;102130.78;;;-2.06;100.00
74065;BME280;62421;51.412;5.432;2022-12-17T00:10:57;102138.72;;;-1.98;100.00
74065;BME280;62421;51.412;5.432;2022-12-17T00:13:41;102146.63;;;-1.93;100.00
74065;BME280;62421;51.412;5.432;2022-12-17T00:16:25;102132.59;;;-1.89;100.00
74065;BME280;62421;51.412;5.432;2022-12-17T00:19:29;102137.88;;;-1.84;100.00
74065;BME280;62421;51.412;5.432;2022-12-17T00:22:12;102147.53;;;-1.80;100.00
74065;BME280;62421;51.412;5.432;2022-12-17T00:24:56;102145.75;;;-1.77;100.00
74065;BME280;62421;51.412;5.432;2022-12-17T00:27:40;102145.78;;;-1.75;100.00
74065;BME280;62421;51.412;5.432;2022-12-17T00:30:24;102150.16;;;-1.74;100.00
74065;BME280;62421;51.412;5.432;2022-12-17T00:33:11;102152.78;;;-1.73;100.00
74065;BME280;62421;51.412;5.432;2022-12-17T00:35:55;102149.31;;;-1.72;100.00
74065;BME280;62421;51.412;5.432;2022-12-17T00:38:39;102148.44;;;-1.68;100.00
74065;BME280;62421;51.412;5.432;2022-12-17T00:41:23;102150.16;;;-1.63;100.00
74065;BME280;62421;51.412;5.432;2022-12-17T00:44:07;102157.22;;;-1.61;100.00
74065;BME280;62421;51.412;5.432;2022-12-17T00:46:51;102162.47;;;-1.58;100.00
74065;BME280;62421;51.412;5.432;2022-12-17T00:49:35;102159.84;;;-1.56;100.00
74065;BME280;62421;51.412;5.432;2022-12-17T00:52:19;102160.72;;;-1.54;100.00
74065;BME280;62421;51.412;5.432;2022-12-17T00:55:03;102165.13;;;-1.52;100.00
74065;BME280;62421;51.412;5.432;2022-12-17T00:57:55;102164.25;;;-1.49;100.00
74065;BME280;62421;51.412;5.432;2022-12-17T01:00:40;102167.75;;;-1.49;100.00
74065;BME280;62421;51.412;5.432;2022-12-17T01:03:24;102166.00;;;-1.47;100.00
74065;BME280;62421;51.412;5.432;2022-12-17T01:06:09;102171.28;;;-1.48;100.00
74065;BME280;62421;51.412;5.432;2022-12-17T01:08:53;102169.53;;;-1.46;100.00
74065;BME280;62421;51.412;5.432;2022-12-17T01:11:37;102175.69;;;-1.44;100.00
74065;BME280;62421;51.412;5.432;2022-12-17T01:14:21;102184.47;;;-1.43;100.00
74065;BME280;62421;51.412;5.432;2022-12-17T01:17:05;102180.06;;;-1.43;100.00
74065;BME280;62421;51.412;5.432;2022-12-17T01:19:49;102173.03;;;-1.42;100.00
74065;BME280;62421;51.412;5.432;2022-12-17T01:22:33;102181.81;;;-1.43;100.00
74065;BME280;62421;51.412;5.432;2022-12-17T01:25:17;102182.69;;;-1.43;100.00
74065;BME280;62421;51.412;5.432;2022-12-17T01:28:01;102189.72;;;-1.42;100.00
74065;BME280;62421;51.412;5.432;2022-12-17T01:30:45;102191.47;;;-1.42;100.00
74065;BME280;62421;51.412;5.432;2022-12-17T01:33:29;102185.31;;;-1.43;100.00
74065;BME280;62421;51.412;5.432;2022-12-17T01:36:13;102177.44;;;-1.46;100.00
74065;BME280;62421;51.412;5.432;2022-12-17T01:38:57;102193.22;;;-1.48;100.00
74065;BME280;62421;51.412;5.432;2022-12-17T01:41:41;102195.00;;;-1.48;100.00
74065;BME280;62421;51.412;5.432;2022-12-17T01:47:27;102195.84;;;-1.51;100.00
74065;BME280;62421;51.412;5.432;2022-12-17T01:50:13;102194.97;;;-1.54;100.00
74065;BME280;62421;51.412;5.432;2022-12-17T01:52:59;102202.00;;;-1.56;100.00
74065;BME280;62421;51.412;5.432;2022-12-17T01:55:44;102211.66;;;-1.58;100.00
74065;BME280;62421;51.412;5.432;2022-12-17T01:58:29;102208.13;;;-1.60;100.00
74065;BME280;62421;51.412;5.432;2022-12-17T02:01:13;102216.00;;;-1.63;100.00
74065;BME280;62421;51.412;5.432;2022-12-17T02:03:57;102210.75;;;-1.67;100.00
74065;BME280;62421;51.412;5.432;2022-12-17T02:07:03;102220.44;;;-1.66;100.00
74065;BME280;62421;51.412;5.432;2022-12-17T02:12:51;102219.53;;;-1.68;100.00
74065;BME280;62421;51.412;5.432;2022-12-17T02:15:46;102216.00;;;-1.73;100.00
74065;BME280;62421;51.412;5.432;2022-12-17T02:18:40;102222.16;;;-1.74;100.00
74065;BME280;62421;51.412;5.432;2022-12-17T02:21:27;102219.50;;;-1.72;100.00
74065;BME280;62421;51.412;5.432;2022-12-17T02:24:46;102221.28;;;-1.73;100.00
74065;BME280;62421;51.412;5.432;2022-12-17T02:27:34;102221.28;;;-1.76;100.00
74065;BME280;62421;51.412;5.432;2022-12-17T02:30:18;102220.38;;;-1.78;100.00
74065;BME280;62421;51.412;5.432;2022-12-17T02:33:03;102223.00;;;-1.79;100.00
74065;BME280;62421;51.412;5.432;2022-12-17T02:35:56;102226.50;;;-1.85;100.00
74065;BME280;62421;51.412;5.432;2022-12-17T02:38:41;102226.47;;;-1.90;100.00
74065;BME280;62421;51.412;5.432;2022-12-17T02:41:31;102232.66;;;-1.89;100.00
74065;BME280;62421;51.412;5.432;2022-12-17T02:44:18;102237.03;;;-1.88;100.00
74065;BME280;62421;51.412;5.432;2022-12-17T02:47:06;102229.13;;;-1.88;100.00
74065;BME280;62421;51.412;5.432;2022-12-17T02:49:50;102230.91;;;-1.87;100.00
74065;BME280;62421;51.412;5.432;2022-12-17T02:52:37;102227.38;;;-1.86;100.00
74065;BME280;62421;51.412;5.432;2022-12-17T02:55:22;102226.50;;;-1.87;100.00
74065;BME280;62421;51.412;5.432;2022-12-17T02:58:06;102244.06;;;-1.89;100.00
74065;BME280;62421;51.412;5.432;2022-12-17T03:00:50;102243.19;;;-1.89;100.00
74065;BME280;62421;51.412;5.432;2022-12-17T03:03:34;102242.28;;;-1.90;100.00
74065;BME280;62421;51.412;5.432;2022-12-17T03:06:18;102244.94;;;-1.88;100.00
74065;BME280;62421;51.412;5.432;2022-12-17T03:09:02;102249.34;;;-1.87;100.00
74065;BME280;62421;51.412;5.432;2022-12-17T03:11:46;102255.47;;;-1.88;100.00
74065;BME280;62421;51.412;5.432;2022-12-17T03:14:30;102257.19;;;-1.90;100.00
74065;BME280;62421;51.412;5.432;2022-12-17T03:17:13;102260.72;;;-1.91;100.00
74065;BME280;62421;51.412;5.432;2022-12-17T03:19:57;102258.06;;;-1.93;100.00
74065;BME280;62421;51.412;5.432;2022-12-17T03:22:41;102258.91;;;-1.98;100.00
74065;BME280;62421;51.412;5.432;2022-12-17T03:25:25;102256.25;;;-2.04;100.00
74065;BME280;62421;51.412;5.432;2022-12-17T03:28:10;102262.38;;;-2.07;100.00
74065;BME280;62421;51.412;5.432;2022-12-17T03:30:58;102264.16;;;-2.11;100.00
74065;BME280;62421;51.412;5.432;2022-12-17T03:33:42;102265.00;;;-2.12;100.00
74065;BME280;62421;51.412;5.432;2022-12-17T03:36:26;102270.25;;;-2.12;100.00
74065;BME280;62421;51.412;5.432;2022-12-17T03:39:10;102271.13;;;-2.11;100.00
74065;BME280;62421;51.412;5.432;2022-12-17T03:41:54;102284.28;;;-2.11;100.00
74065;BME280;62421;51.412;5.432;2022-12-17T03:44:37;102269.41;;;-2.11;100.00
74065;BME280;62421;51.412;5.432;2022-12-17T03:47:21;102266.78;;;-2.11;100.00
74065;BME280;62421;51.412;5.432;2022-12-17T03:50:06;102269.44;;;-2.06;100.00
74065;BME280;62421;51.412;5.432;2022-12-17T03:52:50;102272.06;;;-2.03;100.00
74065;BME280;62421;51.412;5.432;2022-12-17T03:55:34;102279.97;;;-1.98;100.00
74065;BME280;62421;51.412;5.432;2022-12-17T03:58:18;102272.97;;;-1.96;100.00
74065;BME280;62421;51.412;5.432;2022-12-17T04:01:02;102269.47;;;-1.95;100.00
74065;BME280;62421;51.412;5.432;2022-12-17T04:03:46;102281.78;;;-1.93;100.00
74065;BME280;62421;51.412;5.432;2022-12-17T04:06:29;102279.13;;;-1.94;100.00
74065;BME280;62421;51.412;5.432;2022-12-17T04:09:13;102280.00;;;-1.92;100.00
74065;BME280;62421;51.412;5.432;2022-12-17T04:11:57;102284.41;;;-1.90;100.00
74065;BME280;62421;51.412;5.432;2022-12-17T04:14:41;102287.06;;;-1.88;100.00
74065;BME280;62421;51.412;5.432;2022-12-17T04:17:25;102301.09;;;-1.86;100.00
74065;BME280;62421;51.412;5.432;2022-12-17T04:20:09;102307.25;;;-1.84;100.00
74065;BME280;62421;51.412;5.432;2022-12-17T04:22:53;102309.00;;;-1.83;100.00
74065;BME280;62421;51.412;5.432;2022-12-17T04:25:37;102303.75;;;-1.83;100.00
74065;BME280;62421;51.412;5.432;2022-12-17T04:28:21;102302.00;;;-1.81;100.00
74065;BME280;62421;51.412;5.432;2022-12-17T04:31:05;102300.25;;;-1.82;100.00
74065;BME280;62421;51.412;5.432;2022-12-17T04:33:49;102302.00;;;-1.81;100.00
74065;BME280;62421;51.412;5.432;2022-12-17T04:36:33;102309.03;;;-1.80;100.00
74065;BME280;62421;51.412;5.432;2022-12-17T04:39:17;102314.31;;;-1.78;100.00
74065;BME280;62421;51.412;5.432;2022-12-17T04:42:01;102312.56;;;-1.78;100.00
74065;BME280;62421;51.412;5.432;2022-12-17T04:44:45;102311.69;;;-1.77;100.00
74065;BME280;62421;51.412;5.432;2022-12-17T04:47:29;102315.22;;;-1.76;100.00
74065;BME280;62421;51.412;5.432;2022-12-17T04:50:12;102319.56;;;-1.77;100.00
74065;BME280;62421;51.412;5.432;2022-12-17T04:53:01;102318.72;;;-1.76;100.00
74065;BME280;62421;51.412;5.432;2022-12-17T04:55:45;102320.47;;;-1.76;100.00
74065;BME280;62421;51.412;5.432;2022-12-17T04:58:29;102316.97;;;-1.75;100.00
74065;BME280;62421;51.412;5.432;2022-12-17T05:01:13;102316.97;;;-1.75;100.00
74065;BME280;62421;51.412;5.432;2022-12-17T05:03:57;102309.06;;;-1.75;100.00
74065;BME280;62421;51.412;5.432;2022-12-17T05:06:41;102309.03;;;-1.77;100.00
74065;BME280;62421;51.412;5.432;2022-12-17T05:09:25;102313.44;;;-1.76;100.00
74065;BME280;62421;51.412;5.432;2022-12-17T05:12:10;102313.44;;;-1.76;100.00
74065;BME280;62421;51.412;5.432;2022-12-17T05:14:54;102311.69;;;-1.77;100.00
74065;BME280;62421;51.412;5.432;2022-12-17T05:17:38;102313.44;;;-1.77;100.00
74065;BME280;62421;51.412;5.432;2022-12-17T05:20:22;102305.56;;;-1.76;100.00
74065;BME280;62421;51.412;5.432;2022-12-17T05:23:07;102310.81;;;-1.76;100.00
74065;BME280;62421;51.412;5.432;2022-12-17T05:26:02;102314.34;;;-1.74;100.00
74065;BME280;62421;51.412;5.432;2022-12-17T05:28:47;102310.81;;;-1.74;100.00
74065;BME280;62421;51.412;5.432;2022-12-17T05:31:35;102309.97;;;-1.72;100.00
74065;BME280;62421;51.412;5.432;2022-12-17T05:34:19;102320.50;;;-1.72;100.00
74065;BME280;62421;51.412;5.432;2022-12-17T05:37:20;102325.75;;;-1.72;100.00
74065;BME280;62421;51.412;5.432;2022-12-17T05:40:04;102325.75;;;-1.72;100.00
74065;BME280;62421;51.412;5.432;2022-12-17T05:42:59;102328.38;;;-1.70;100.00
74065;BME280;62421;51.412;5.432;2022-12-17T05:45:44;102324.00;;;-1.71;100.00
74065;BME280;62421;51.412;5.432;2022-12-17T05:48:29;102333.66;;;-1.72;100.00
74065;BME280;62421;51.412;5.432;2022-12-17T05:51:14;102333.66;;;-1.72;100.00
74065;BME280;62421;51.412;5.432;2022-12-17T05:53:58;102338.03;;;-1.71;100.00
74065;BME280;62421;51.412;5.432;2022-12-17T05:56:44;102340.69;;;-1.71;100.00
74065;BME280;62421;51.412;5.432;2022-12-17T05:59:28;102341.56;;;-1.72;100.00
74065;BME280;62421;51.412;5.432;2022-12-17T06:02:12;102340.69;;;-1.71;100.00
74065;BME280;62421;51.412;5.432;2022-12-17T06:04:56;102336.31;;;-1.72;100.00
74065;BME280;62421;51.412;5.432;2022-12-17T06:07:40;102342.41;;;-1.73;100.00
74065;BME280;62421;51.412;5.432;2022-12-17T06:10:24;102344.19;;;-1.72;100.00
74065;BME280;62421;51.412;5.432;2022-12-17T06:13:08;102352.09;;;-1.72;100.00
74065;BME280;62421;51.412;5.432;2022-12-17T06:15:52;102349.44;;;-1.73;100.00
74065;BME280;62421;51.412;5.432;2022-12-17T06:18:36;102338.03;;;-1.74;100.00
74065;BME280;62421;51.412;5.432;2022-12-17T06:21:21;102346.81;;;-1.73;100.00
74065;BME280;62421;51.412;5.432;2022-12-17T06:24:05;102342.41;;;-1.74;100.00
74065;BME280;62421;51.412;5.432;2022-12-17T06:26:49;102354.72;;;-1.73;100.00
74065;BME280;62421;51.412;5.432;2022-12-17T06:29:33;102357.34;;;-1.73;100.00
74065;BME280;62421;51.412;5.432;2022-12-17T06:32:17;102351.22;;;-1.71;100.00
74065;BME280;62421;51.412;5.432;2022-12-17T06:35:01;102352.09;;;-1.72;100.00
74065;BME280;62421;51.412;5.432;2022-12-17T06:37:45;102357.38;;;-1.72;100.00
74065;BME280;62421;51.412;5.432;2022-12-17T06:40:29;102374.03;;;-1.71;100.00
74065;BME280;62421;51.412;5.432;2022-12-17T06:43:13;102358.25;;;-1.71;100.00
74065;BME280;62421;51.412;5.432;2022-12-17T06:45:57;102359.13;;;-1.71;100.00
74065;BME280;62421;51.412;5.432;2022-12-17T06:48:41;102359.09;;;-1.72;100.00
74065;BME280;62421;51.412;5.432;2022-12-17T06:51:25;102362.63;;;-1.72;100.00
74065;BME280;62421;51.412;5.432;2022-12-17T06:54:09;102371.44;;;-1.70;100.00
74065;BME280;62421;51.412;5.432;2022-12-17T06:56:53;102365.25;;;-1.70;100.00
74065;BME280;62421;51.412;5.432;2022-12-17T06:59:40;102365.28;;;-1.72;100.00
74065;BME280;62421;51.412;5.432;2022-12-17T07:02:24;102362.63;;;-1.72;100.00
74065;BME280;62421;51.412;5.432;2022-12-17T07:05:08;102374.91;;;-1.72;100.00
74065;BME280;62421;51.412;5.432;2022-12-17T07:07:56;102385.44;;;-1.72;100.00
74065;BME280;62421;51.412;5.432;2022-12-17T07:10:41;102395.97;;;-1.74;100.00
74065;BME280;62421;51.412;5.432;2022-12-17T07:13:25;102398.63;;;-1.74;100.00
74065;BME280;62421;51.412;5.432;2022-12-17T07:16:09;102403.88;;;-1.72;100.00
74065;BME280;62421;51.412;5.432;2022-12-17T07:18:53;102405.66;;;-1.71;100.00
74065;BME280;62421;51.412;5.432;2022-12-17T07:21:37;102416.19;;;-1.71;100.00
74065;BME280;62421;51.412;5.432;2022-12-17T07:24:20;102417.06;;;-1.74;100.00
74065;BME280;62421;51.412;5.432;2022-12-17T07:27:04;102416.16;;;-1.74;100.00
74065;BME280;62421;51.412;5.432;2022-12-17T07:29:48;102422.31;;;-1.75;100.00
74065;BME280;62421;51.412;5.432;2022-12-17T07:32:32;102427.56;;;-1.77;100.00
74065;BME280;62421;51.412;5.432;2022-12-17T07:35:16;102431.06;;;-1.78;100.00
74065;BME280;62421;51.412;5.432;2022-12-17T07:38:01;102438.97;;;-1.78;100.00
74065;BME280;62421;51.412;5.432;2022-12-17T07:40:45;102424.03;;;-1.79;100.00
74065;BME280;62421;51.412;5.432;2022-12-17T07:43:30;102432.84;;;-1.78;100.00
74065;BME280;62421;51.412;5.432;2022-12-17T07:46:15;102435.44;;;-1.80;100.00
74065;BME280;62421;51.412;5.432;2022-12-17T07:48:58;102440.72;;;-1.80;100.00
74065;BME280;62421;51.412;5.432;2022-12-17T07:51:42;102438.94;;;-1.81;100.00
74065;BME280;62421;51.412;5.432;2022-12-17T07:54:26;102438.09;;;-1.80;100.00
74065;BME280;62421;51.412;5.432;2022-12-17T07:57:10;102445.97;;;-1.84;100.00
74065;BME280;62421;51.412;5.432;2022-12-17T07:59:54;102452.06;;;-1.86;100.00
74065;BME280;62421;51.412;5.432;2022-12-17T08:02:38;102466.13;;;-1.85;100.00
74065;BME280;62421;51.412;5.432;2022-12-17T08:05:22;102470.50;;;-1.86;100.00
74065;BME280;62421;51.412;5.432;2022-12-17T08:08:10;102468.75;;;-1.87;100.00
74065;BME280;62421;51.412;5.432;2022-12-17T08:11:03;102466.09;;;-1.88;100.00
74065;BME280;62421;51.412;5.432;2022-12-17T08:13:47;102475.75;;;-1.90;100.00
74065;BME280;62421;51.412;5.432;2022-12-17T08:16:31;102476.63;;;-1.91;100.00
74065;BME280;62421;51.412;5.432;2022-12-17T08:19:15;102480.09;;;-1.94;100.00
74065;BME280;62421;51.412;5.432;2022-12-17T08:21:58;102489.75;;;-1.94;100.00
74065;BME280;62421;51.412;5.432;2022-12-17T08:24:42;102489.78;;;-1.93;100.00
74065;BME280;62421;51.412;5.432;2022-12-17T08:27:26;102487.16;;;-1.90;100.00
74065;BME280;62421;51.412;5.432;2022-12-17T08:30:11;102485.44;;;-1.89;100.00
74065;BME280;62421;51.412;5.432;2022-12-17T08:32:55;102488.94;;;-1.87;100.00
74065;BME280;62421;51.412;5.432;2022-12-17T08:35:39;102491.59;;;-1.84;100.00
74065;BME280;62421;51.412;5.432;2022-12-17T08:38:22;102496.88;;;-1.82;100.00
74065;BME280;62421;51.412;5.432;2022-12-17T08:41:06;102496.88;;;-1.81;100.00
74065;BME280;62421;51.412;5.432;2022-12-17T08:43:50;102496.06;;;-1.75;100.00
74065;BME280;62421;51.412;5.432;2022-12-17T08:46:34;102498.72;;;-1.71;100.00
74065;BME280;62421;51.412;5.432;2022-12-17T08:49:18;102496.97;;;-1.69;100.00
74065;BME280;62421;51.412;5.432;2022-12-17T08:52:02;102504.00;;;-1.66;100.00
74065;BME280;62421;51.412;5.432;2022-12-17T08:54:46;102512.81;;;-1.64;100.00
74065;BME280;62421;51.412;5.432;2022-12-17T08:57:30;102510.16;;;-1.64;100.00
74065;BME280;62421;51.412;5.432;2022-12-17T09:00:14;102499.63;;;-1.64;100.00
74065;BME280;62421;51.412;5.432;2022-12-17T09:03:14;102504.94;;;-1.61;100.00
74065;BME280;62421;51.412;5.432;2022-12-17T09:05:59;102500.56;;;-1.59;100.00
74065;BME280;62421;51.412;5.432;2022-12-17T09:08:43;102509.38;;;-1.57;100.00
74065;BME280;62421;51.412;5.432;2022-12-17T09:11:31;102509.38;;;-1.54;100.00
74065;BME280;62421;51.412;5.432;2022-12-17T09:14:15;102513.75;;;-1.54;100.00
74065;BME280;62421;51.412;5.432;2022-12-17T09:16:59;102526.94;;;-1.53;100.00
74065;BME280;62421;51.412;5.432;2022-12-17T09:19:43;102516.41;;;-1.51;100.00
74065;BME280;62421;51.412;5.432;2022-12-17T09:22:27;102530.50;;;-1.46;100.00
74065;BME280;62421;51.412;5.432;2022-12-17T09:25:11;102530.50;;;-1.45;100.00
74065;BME280;62421;51.412;5.432;2022-12-17T09:27:59;102527.00;;;-1.45;100.00
74065;BME280;62421;51.412;5.432;2022-12-17T09:30:43;102527.91;;;-1.41;100.00
74065;BME280;62421;51.412;5.432;2022-12-17T09:33:27;102534.91;;;-1.40;100.00
74065;BME280;62421;51.412;5.432;2022-12-17T09:36:11;102541.97;;;-1.38;100.00
74065;BME280;62421;51.412;5.432;2022-12-17T09:38:55;102552.53;;;-1.35;100.00
74065;BME280;62421;51.412;5.432;2022-12-17T09:45:07;102545.53;;;-1.33;100.00
74065;BME280;62421;51.412;5.432;2022-12-17T09:48:17;102548.19;;;-1.31;100.00
74065;BME280;62421;51.412;5.432;2022-12-17T09:51:03;102546.38;;;-1.34;100.00
74065;BME280;62421;51.412;5.432;2022-12-17T09:53:51;102550.81;;;-1.31;100.00
74065;BME280;62421;51.412;5.432;2022-12-17T09:56:37;102556.94;;;-1.29;100.00
74065;BME280;62421;51.412;5.432;2022-12-17T09:59:28;102552.59;;;-1.29;100.00
74065;BME280;62421;51.412;5.432;2022-12-17T10:04:57;102571.03;;;-1.27;100.00
74065;BME280;62421;51.412;5.432;2022-12-17T10:07:42;102574.56;;;-1.27;100.00
74065;BME280;62421;51.412;5.432;2022-12-17T10:10:30;102567.53;;;-1.26;100.00
74065;BME280;62421;51.412;5.432;2022-12-17T10:13:20;102571.94;;;-1.27;100.00
74065;BME280;62421;51.412;5.432;2022-12-17T10:16:27;102565.78;;;-1.24;100.00
74065;BME280;62421;51.412;5.432;2022-12-17T10:19:35;102562.28;;;-1.21;100.00
74065;BME280;62421;51.412;5.432;2022-12-17T10:22:21;102563.19;;;-1.19;100.00
74065;BME280;62421;51.412;5.432;2022-12-17T10:25:13;102558.81;;;-1.17;100.00
74065;BME280;62421;51.412;5.432;2022-12-17T10:28:05;102559.66;;;-1.17;100.00
74065;BME280;62421;51.412;5.432;2022-12-17T10:30:49;102557.91;;;-1.16;100.00
74065;BME280;62421;51.412;5.432;2022-12-17T10:33:38;102554.44;;;-1.14;100.00
74065;BME280;62421;51.412;5.432;2022-12-17T10:36:23;102550.91;;;-1.14;100.00
74065;BME280;62421;51.412;5.432;2022-12-17T10:39:19;102554.41;;;-1.12;100.00
74065;BME280;62421;51.412;5.432;2022-12-17T10:48:26;102543.94;;;-1.03;100.00
74065;BME280;62421;51.412;5.432;2022-12-17T10:51:35;102553.63;;;-0.97;100.00
74065;BME280;62421;51.412;5.432;2022-12-17T10:54:29;102557.16;;;-0.95;100.00
74065;BME280;62421;51.412;5.432;2022-12-17T11:03:04;102558.94;;;-0.87;100.00
74065;BME280;62421;51.412;5.432;2022-12-17T11:05:53;102569.53;;;-0.85;100.00
74065;BME280;62421;51.412;5.432;2022-12-17T11:08:38;102560.72;;;-0.86;100.00
74065;BME280;62421;51.412;5.432;2022-12-17T11:11:23;102566.88;;;-0.85;100.00
74065;BME280;62421;51.412;5.432;2022-12-17T11:14:09;102578.28;;;-0.89;100.00
74065;BME280;62421;51.412;5.432;2022-12-17T11:16:59;102565.97;;;-0.89;100.00
74065;BME280;62421;51.412;5.432;2022-12-17T11:20:05;102562.47;;;-0.89;100.00
74065;BME280;62421;51.412;5.432;2022-12-17T11:22:53;102565.09;;;-0.89;100.00
74065;BME280;62421;51.412;5.432;2022-12-17T11:25:55;102559.84;;;-0.83;100.00
74065;BME280;62421;51.412;5.432;2022-12-17T11:28:42;102559.84;;;-0.85;100.00
74065;BME280;62421;51.412;5.432;2022-12-17T11:31:42;102565.09;;;-0.86;100.00
74065;BME280;62421;51.412;5.432;2022-12-17T11:34:48;102564.25;;;-0.82;100.00
74065;BME280;62421;51.412;5.432;2022-12-17T11:40:39;102564.28;;;-0.77;100.00
74065;BME280;62421;51.412;5.432;2022-12-17T11:43:35;102565.16;;;-0.78;100.00
74065;BME280;62421;51.412;5.432;2022-12-17T11:49:22;102561.66;;;-0.73;100.00
74065;BME280;62421;51.412;5.432;2022-12-17T11:55:16;102547.63;;;-0.66;100.00
74065;BME280;62421;51.412;5.432;2022-12-17T11:58:39;102558.22;;;-0.58;100.00
74065;BME280;62421;51.412;5.432;2022-12-17T12:05:01;102562.59;;;-0.58;100.00
74065;BME280;62421;51.412;5.432;2022-12-17T12:08:04;102552.91;;;-0.56;100.00
74065;BME280;62421;51.412;5.432;2022-12-17T12:11:02;102557.31;;;-0.57;100.00
74065;BME280;62421;51.412;5.432;2022-12-17T12:13:58;102549.41;;;-0.55;100.00
74065;BME280;62421;51.412;5.432;2022-12-17T12:19:52;102541.50;;;-0.55;99.71
74065;BME280;62421;51.412;5.432;2022-12-17T12:26:01;102537.94;;;-0.64;100.00
74065;BME280;62421;51.412;5.432;2022-12-17T12:34:34;102542.31;;;-0.76;99.96
74065;BME280;62421;51.412;5.432;2022-12-17T12:37:19;102540.53;;;-0.76;99.80
74065;BME280;62421;51.412;5.432;2022-12-17T12:43:04;102535.28;;;-0.71;100.00
74065;BME280;62421;51.412;5.432;2022-12-17T12:46:00;102525.63;;;-0.71;100.00
74065;BME280;62421;51.412;5.432;2022-12-17T12:52:03;102525.66;;;-0.62;99.83
74065;BME280;62421;51.412;5.432;2022-12-17T12:54:52;102531.78;;;-0.61;99.52
74065;BME280;62421;51.412;5.432;2022-12-17T12:57:40;102537.94;;;-0.67;99.25
74065;BME280;62421;51.412;5.432;2022-12-17T13:00:30;102535.28;;;-0.70;99.07
74065;BME280;62421;51.412;5.432;2022-12-17T13:03:38;102527.34;;;-0.74;100.00
74065;BME280;62421;51.412;5.432;2022-12-17T13:06:46;102524.69;;;-0.80;99.93
74065;BME280;62421;51.412;5.432;2022-12-17T13:11:48;102529.94;;;-0.90;99.47
74065;BME280;62421;51.412;5.432;2022-12-17T13:14:17;102532.56;;;-0.91;99.15
74065;BME280;62421;51.412;5.432;2022-12-17T13:19:42;102540.47;;;-0.99;99.31
74065;BME280;62421;51.412;5.432;2022-12-17T13:24:47;102521.06;;;-1.04;99.44
74065;BME280;62421;51.412;5.432;2022-12-17T13:27:39;102519.31;;;-1.05;100.00
74065;BME280;62421;51.412;5.432;2022-12-17T13:38:25;102518.38;;;-1.18;100.00
74065;BME280;62421;51.412;5.432;2022-12-17T13:44:00;102521.84;;;-1.27;99.92
74065;BME280;62421;51.412;5.432;2022-12-17T13:46:49;102527.09;;;-1.31;99.90
74065;BME280;62421;51.412;5.432;2022-12-17T13:49:22;102522.63;;;-1.40;100.00
74065;BME280;62421;51.412;5.432;2022-12-17T13:51:59;102517.31;;;-1.48;100.00
74065;BME280;62421;51.412;5.432;2022-12-17T13:54:26;102517.28;;;-1.54;100.00
74065;BME280;62421;51.412;5.432;2022-12-17T13:56:51;102517.25;;;-1.55;100.00
74065;BME280;62421;51.412;5.432;2022-12-17T13:59:22;102524.31;;;-1.54;100.00
74065;BME280;62421;51.412;5.432;2022-12-17T14:01:52;102525.19;;;-1.52;100.00
74065;BME280;62421;51.412;5.432;2022-12-17T14:04:23;102520.78;;;-1.55;100.00
74065;BME280;62421;51.412;5.432;2022-12-17T14:06:50;102527.81;;;-1.57;100.00
74065;BME280;62421;51.412;5.432;2022-12-17T14:09:19;102525.16;;;-1.55;100.00
74065;BME280;62421;51.412;5.432;2022-12-17T14:11:45;102523.38;;;-1.59;100.00
74065;BME280;62421;51.412;5.432;2022-12-17T14:14:31;102526.00;;;-1.62;100.00
74065;BME280;62421;51.412;5.432;2022-12-17T14:16:58;102516.31;;;-1.67;100.00
74065;BME280;62421;51.412;5.432;2022-12-17T14:19:24;102527.72;;;-1.68;100.00
74065;BME280;62421;51.412;5.432;2022-12-17T14:21:51;102533.81;;;-1.70;100.00
74065;BME280;62421;51.412;5.432;2022-12-17T14:24:18;102537.31;;;-1.76;100.00
74065;BME280;62421;51.412;5.432;2022-12-17T14:26:57;102534.69;;;-1.76;100.00
74065;BME280;62421;51.412;5.432;2022-12-17T14:29:29;102533.78;;;-1.78;100.00
74065;BME280;62421;51.412;5.432;2022-12-17T14:32:00;102526.75;;;-1.80;100.00
74065;BME280;62421;51.412;5.432;2022-12-17T14:34:26;102535.50;;;-1.81;100.00
74065;BME280;62421;51.412;5.432;2022-12-17T14:36:58;102539.03;;;-1.82;100.00
74065;BME280;62421;51.412;5.432;2022-12-17T14:39:30;102540.75;;;-1.83;100.00
74065;BME280;62421;51.412;5.432;2022-12-17T14:42:20;102542.50;;;-1.87;100.00
74065;BME280;62421;51.412;5.432;2022-12-17T14:45:20;102546.84;;;-1.90;100.00
74065;BME280;62421;51.412;5.432;2022-12-17T14:47:55;102548.56;;;-1.94;100.00
74065;BME280;62421;51.412;5.432;2022-12-17T14:50:23;102552.03;;;-1.96;100.00
74065;BME280;62421;51.412;5.432;2022-12-17T14:52:51;102555.56;;;-1.96;100.00
74065;BME280;62421;51.412;5.432;2022-12-17T14:55:23;102549.44;;;-1.95;100.00
74065;BME280;62421;51.412;5.432;2022-12-17T14:57:50;102555.63;;;-1.91;100.00
74065;BME280;62421;51.412;5.432;2022-12-17T15:00:15;102556.47;;;-1.92;100.00
74065;BME280;62421;51.412;5.432;2022-12-17T15:02:42;102552.94;;;-1.94;100.00
74065;BME280;62421;51.412;5.432;2022-12-17T15:05:13;102559.94;;;-1.99;100.00
74065;BME280;62421;51.412;5.432;2022-12-17T15:07:39;102561.63;;;-2.06;100.00
74065;BME280;62421;51.412;5.432;2022-12-17T15:10:09;102559.81;;;-2.12;100.00
74065;BME280;62421;51.412;5.432;2022-12-17T15:12:35;102558.88;;;-2.15;100.00
74065;BME280;62421;51.412;5.432;2022-12-17T15:15:00;102569.38;;;-2.20;100.00
74065;BME280;62421;51.412;5.432;2022-12-17T15:17:26;102564.97;;;-2.22;100.00
74065;BME280;62421;51.412;5.432;2022-12-17T15:19:51;102571.09;;;-2.25;100.00
74065;BME280;62421;51.412;5.432;2022-12-17T15:22:16;102580.72;;;-2.25;100.00